Time;durP1;ratioP1;P1;durP2;ratioP2;P2;SDS_P1;SDS_P2;PMS_P1;PMS_P2;Temp;Humidity;BMP_temperature;BMP_pressure;BME280_temperature;BME280_humidity;BME280_pressure;Samples;Min_cycle;Max_cycle;Signal;HPM_P1;HPM_P2
2023/09/29 00:01:38;;;;;;;0.10;0.10;;;16.30;99.90;;;;;;5063829;28;20467;-78
2023/09/29 00:04:05;;;;;;;0.10;0.10;;;16.30;99.90;;;;;;5078671;28;20472;-77
2023/09/29 00:06:34;;;;;;;0.10;0.10;;;16.40;99.90;;;;;;5070143;28;20416;-79
2023/09/29 00:09:00;;;;;;;0.10;0.10;;;16.40;99.90;;;;;;5090349;28;20419;-78
2023/09/29 00:11:27;;;;;;;0.10;0.10;;;16.30;99.90;;;;;;5086764;28;20435;-78
2023/09/29 00:13:52;;;;;;;0.00;0.00;;;16.20;99.90;;;;;;5094118;28;20919;-78
2023/09/29 00:16:18;;;;;;;0.00;0.00;;;16.20;99.90;;;;;;5074832;28;20525;-78
2023/09/29 00:18:43;;;;;;;0.10;0.10;;;16.20;99.90;;;;;;5099019;28;20196;-78
2023/09/29 00:21:09;;;;;;;0.00;0.00;;;16.20;99.90;;;;;;5092312;28;20260;-79
2023/09/29 00:23:35;;;;;;;0.00;0.00;;;16.10;99.90;;;;;;5072675;28;20235;-78
2023/09/29 00:26:01;;;;;;;0.00;0.00;;;16.10;99.90;;;;;;5082020;28;20830;-78
2023/09/29 00:28:27;;;;;;;0.00;0.00;;;16.20;99.90;;;;;;5085485;28;20670;-78
2023/09/29 00:30:53;;;;;;;0.10;0.10;;;16.10;99.90;;;;;;5092761;28;20439;-78
2023/09/29 00:33:18;;;;;;;0.10;0.10;;;16.20;99.90;;;;;;5092077;28;20423;-78
2023/09/29 00:35:44;;;;;;;0.10;0.10;;;16.10;99.90;;;;;;5086928;28;20213;-78
2023/09/29 00:38:09;;;;;;;0.10;0.10;;;16.20;99.90;;;;;;5094010;28;20213;-78
2023/09/29 00:40:35;;;;;;;0.10;0.10;;;16.20;99.90;;;;;;5083858;28;20239;-79
2023/09/29 00:43:03;;;;;;;0.10;0.10;;;16.20;99.90;;;;;;5072737;28;20232;-78
2023/09/29 00:45:29;;;;;;;0.10;0.10;;;16.20;99.90;;;;;;5093072;28;20205;-78
2023/09/29 00:47:59;;;;;;;0.10;0.10;;;16.20;99.90;;;;;;5107909;28;20483;-78
2023/09/29 00:50:28;;;;;;;0.00;0.00;;;16.20;99.90;;;;;;5086676;28;20475;-79
2023/09/29 00:52:59;;;;;;;0.00;0.00;;;16.20;99.90;;;;;;5085604;28;20447;-79
2023/09/29 00:55:27;;;;;;;0.00;0.00;;;16.30;99.90;;;;;;5077607;28;20436;-78
2023/09/29 00:57:56;;;;;;;0.10;0.10;;;16.30;99.90;;;;;;5079354;28;20958;-79
2023/09/29 01:03:05;;;;;;;0.10;0.10;;;16.40;99.90;;;;;;5072133;28;20467;-77
2023/09/29 01:05:38;;;;;;;0.10;0.10;;;16.30;99.90;;;;;;5091230;28;20443;-78
2023/09/29 01:08:08;;;;;;;0.10;0.10;;;16.30;99.90;;;;;;5091687;28;20423;-79
2023/09/29 01:10:35;;;;;;;0.10;0.10;;;16.40;99.90;;;;;;5080203;28;20446;-79
2023/09/29 01:13:01;;;;;;;0.10;0.10;;;16.30;99.90;;;;;;5091830;28;20526;-79
2023/09/29 01:15:26;;;;;;;0.10;0.10;;;16.40;99.90;;;;;;5089950;28;20446;-79
2023/09/29 01:17:52;;;;;;;0.10;0.10;;;16.40;99.90;;;;;;5096106;28;20480;-78
2023/09/29 01:20:25;;;;;;;0.10;0.10;;;16.30;99.90;;;;;;5104657;28;20213;-79
2023/09/29 01:22:50;;;;;;;0.10;0.10;;;16.30;99.90;;;;;;5106766;28;20180;-78
2023/09/29 01:25:17;;;;;;;0.10;0.10;;;16.30;99.90;;;;;;5096172;28;20440;-79
2023/09/29 01:27:43;;;;;;;0.10;0.10;;;16.30;99.90;;;;;;5070808;28;20177;-79
2023/09/29 01:30:13;;;;;;;0.10;0.10;;;16.30;99.90;;;;;;5067730;28;20442;-79
2023/09/29 01:32:39;;;;;;;0.10;0.10;;;16.30;99.90;;;;;;5075556;28;20496;-79
2023/09/29 01:35:06;;;;;;;0.10;0.10;;;16.20;99.90;;;;;;5091697;28;20423;-79
2023/09/29 01:37:33;;;;;;;0.10;0.10;;;16.30;99.90;;;;;;5092798;28;20537;-78
2023/09/29 01:39:59;;;;;;;0.00;0.00;;;16.30;99.90;;;;;;5078476;28;20479;-79
2023/09/29 01:42:24;;;;;;;0.00;0.00;;;16.20;99.90;;;;;;5076498;28;20436;-79
2023/09/29 01:44:51;;;;;;;0.00;0.00;;;16.30;99.90;;;;;;5070732;28;20641;-79
2023/09/29 01:47:16;;;;;;;0.00;0.00;;;16.30;99.90;;;;;;5081067;28;20200;-79
2023/09/29 01:49:42;;;;;;;0.10;0.10;;;16.30;99.90;;;;;;5108837;28;20439;-79
2023/09/29 01:52:07;;;;;;;0.10;0.10;;;16.30;99.90;;;;;;5081250;28;20184;-79
2023/09/29 01:54:33;;;;;;;0.10;0.10;;;16.30;99.90;;;;;;5086500;28;20222;-78
2023/09/29 01:57:01;;;;;;;0.10;0.10;;;16.30;99.90;;;;;;5093958;28;20832;-79
2023/09/29 01:59:27;;;;;;;0.10;0.10;;;16.20;99.90;;;;;;5088769;28;20740;-79
2023/09/29 02:01:53;;;;;;;0.00;0.00;;;16.20;99.90;;;;;;5092792;28;20434;-79
2023/09/29 02:04:19;;;;;;;0.00;0.00;;;16.30;99.90;;;;;;5112087;28;20463;-79
2023/09/29 02:06:45;;;;;;;0.00;0.00;;;16.30;99.90;;;;;;5091677;28;20436;-78
2023/09/29 02:09:10;;;;;;;0.00;0.00;;;16.20;99.90;;;;;;5091672;28;20184;-79
2023/09/29 02:11:39;;;;;;;0.00;0.00;;;16.30;99.90;;;;;;5091499;28;20200;-79
2023/09/29 02:14:05;;;;;;;0.10;0.10;;;16.20;99.90;;;;;;5090885;28;20536;-79
2023/09/29 02:16:31;;;;;;;0.00;0.00;;;16.20;99.90;;;;;;5091792;28;20897;-79
2023/09/29 02:18:56;;;;;;;0.00;0.00;;;16.20;99.90;;;;;;5071439;28;20571;-78
2023/09/29 02:21:23;;;;;;;0.00;0.00;;;16.20;99.90;;;;;;5062916;28;20177;-78
2023/09/29 02:23:48;;;;;;;0.00;0.00;;;16.10;99.90;;;;;;5071061;28;20182;-79
2023/09/29 02:26:14;;;;;;;0.00;0.00;;;16.10;99.90;;;;;;5074241;28;20431;-79
2023/09/29 02:28:40;;;;;;;0.00;0.00;;;16.10;99.90;;;;;;5091295;28;20637;-78
2023/09/29 02:31:13;;;;;;;0.10;0.10;;;16.10;99.90;;;;;;5087921;28;20576;-79
2023/09/29 02:33:40;;;;;;;0.00;0.00;;;16.10;99.90;;;;;;5065309;28;20200;-79
2023/09/29 02:36:08;;;;;;;0.00;0.00;;;16.10;99.90;;;;;;5070093;28;20426;-79
2023/09/29 02:38:36;;;;;;;0.10;0.10;;;16.10;99.90;;;;;;5078221;28;20482;-79
2023/09/29 02:41:02;;;;;;;0.10;0.10;;;16.10;99.90;;;;;;5090444;27;20529;-78
2023/09/29 02:43:30;;;;;;;0.10;0.10;;;16.10;99.90;;;;;;5079977;28;20478;-79
2023/09/29 02:45:56;;;;;;;0.10;0.10;;;16.00;99.90;;;;;;5091742;28;20199;-79
2023/09/29 02:48:23;;;;;;;0.10;0.10;;;16.10;99.90;;;;;;5066937;28;20447;-79
2023/09/29 02:50:48;;;;;;;0.10;0.10;;;16.00;99.90;;;;;;5103943;28;20439;-79
2023/09/29 02:53:14;;;;;;;0.10;0.10;;;16.00;99.90;;;;;;5074061;28;20455;-79
2023/09/29 02:55:40;;;;;;;0.10;0.10;;;16.00;99.90;;;;;;5090951;28;20212;-79
2023/09/29 02:58:07;;;;;;;0.10;0.10;;;16.00;99.90;;;;;;5075578;28;20451;-79
2023/09/29 03:00:33;;;;;;;0.10;0.10;;;16.00;99.90;;;;;;5089822;28;20224;-79
2023/09/29 03:02:58;;;;;;;0.10;0.10;;;16.00;99.90;;;;;;5098786;28;20476;-79
2023/09/29 03:05:25;;;;;;;0.10;0.10;;;15.90;99.90;;;;;;5088283;28;20500;-78
2023/09/29 03:07:51;;;;;;;0.10;0.10;;;16.00;99.90;;;;;;5113088;27;20192;-79
2023/09/29 03:10:17;;;;;;;0.10;0.10;;;16.00;99.90;;;;;;5088493;28;20446;-79
2023/09/29 03:12:44;;;;;;;0.10;0.10;;;16.00;99.90;;;;;;5084778;28;20559;-79
2023/09/29 03:15:12;;;;;;;0.10;0.10;;;15.90;99.90;;;;;;5078541;28;20447;-79
2023/09/29 03:17:37;;;;;;;0.00;0.00;;;16.00;99.90;;;;;;5082376;28;20483;-79
2023/09/29 03:20:10;;;;;;;0.10;0.10;;;16.00;99.90;;;;;;5069559;28;20986;-79
2023/09/29 03:22:39;;;;;;;0.10;0.10;;;16.00;99.90;;;;;;5079446;28;20182;-78
2023/09/29 03:25:06;;;;;;;0.10;0.10;;;16.00;99.90;;;;;;5066714;28;20518;-79
2023/09/29 03:27:32;;;;;;;0.10;0.10;;;16.10;99.90;;;;;;5073268;28;20433;-77
2023/09/29 03:30:00;;;;;;;0.10;0.10;;;16.10;99.90;;;;;;5081167;28;20440;-79
2023/09/29 03:32:26;;;;;;;0.10;0.10;;;16.00;99.90;;;;;;5087949;28;20534;-79
2023/09/29 03:34:52;;;;;;;0.00;0.00;;;16.00;99.90;;;;;;5070425;28;20431;-79
2023/09/29 03:37:19;;;;;;;0.10;0.10;;;16.00;99.90;;;;;;5091320;28;20419;-79
2023/09/29 03:39:47;;;;;;;0.10;0.10;;;15.90;99.90;;;;;;5071956;28;20520;-79
2023/09/29 03:42:14;;;;;;;0.00;0.00;;;16.00;99.90;;;;;;5084291;28;20523;-78
2023/09/29 03:44:39;;;;;;;0.10;0.10;;;16.00;99.90;;;;;;5087399;28;20439;-79
2023/09/29 03:47:05;;;;;;;0.10;0.10;;;16.00;99.90;;;;;;5090190;28;20450;-78
2023/09/29 03:49:31;;;;;;;0.10;0.10;;;16.00;99.90;;;;;;5101939;28;20243;-79
2023/09/29 03:51:57;;;;;;;0.10;0.10;;;15.90;99.90;;;;;;5086111;28;20184;-79
2023/09/29 03:54:23;;;;;;;0.00;0.00;;;15.90;99.90;;;;;;5081607;28;20462;-79
2023/09/29 03:56:52;;;;;;;0.10;0.10;;;16.00;99.90;;;;;;5069791;28;20469;-78
2023/09/29 03:59:18;;;;;;;0.10;0.10;;;15.90;99.90;;;;;;5082096;28;20494;-79
2023/09/29 04:01:45;;;;;;;0.10;0.10;;;15.90;99.90;;;;;;5081318;28;20443;-79
2023/09/29 04:04:11;;;;;;;0.10;0.10;;;16.00;99.90;;;;;;5072990;28;20451;-79
2023/09/29 04:06:37;;;;;;;0.10;0.10;;;16.00;99.90;;;;;;5104282;28;20437;-78
2023/09/29 04:09:04;;;;;;;0.00;0.00;;;15.90;99.90;;;;;;5098394;28;20439;-79
2023/09/29 04:11:30;;;;;;;0.00;0.00;;;16.00;99.90;;;;;;5089919;28;20173;-79
2023/09/29 04:13:56;;;;;;;0.00;0.00;;;16.00;99.90;;;;;;5088422;28;21004;-79
2023/09/29 04:16:21;;;;;;;0.00;0.00;;;15.90;99.90;;;;;;5099240;28;20431;-79
2023/09/29 04:18:47;;;;;;;0.00;0.00;;;15.90;99.90;;;;;;5077231;28;20206;-79
2023/09/29 04:21:15;;;;;;;0.00;0.00;;;15.80;99.90;;;;;;5071550;28;20182;-79
2023/09/29 04:23:41;;;;;;;0.00;0.00;;;15.80;99.90;;;;;;5089698;28;20462;-79
2023/09/29 04:26:20;;;;;;;0.00;0.00;;;15.80;99.90;;;;;;5087045;28;20439;-79
2023/09/29 04:28:46;;;;;;;0.00;0.00;;;15.70;99.90;;;;;;5087958;28;20552;-79
2023/09/29 04:31:14;;;;;;;0.00;0.00;;;15.70;99.90;;;;;;5065403;28;21107;-79
2023/09/29 04:33:41;;;;;;;0.10;0.10;;;15.70;99.90;;;;;;5069771;28;20478;-79
2023/09/29 04:36:07;;;;;;;0.10;0.10;;;15.60;99.90;;;;;;5086538;28;20432;-79
2023/09/29 04:38:33;;;;;;;0.10;0.10;;;15.50;99.90;;;;;;5087718;28;20466;-79
2023/09/29 04:40:58;;;;;;;0.00;0.00;;;15.50;99.90;;;;;;5090848;28;20451;-79
2023/09/29 04:43:24;;;;;;;0.00;0.00;;;15.70;99.90;;;;;;5078747;28;20516;-79
2023/09/29 04:45:50;;;;;;;0.00;0.00;;;15.70;99.90;;;;;;5086551;28;20672;-78
2023/09/29 04:48:15;;;;;;;0.00;0.00;;;15.60;99.90;;;;;;5072929;28;20243;-78
2023/09/29 04:50:41;;;;;;;0.10;0.10;;;15.60;99.90;;;;;;5087356;28;20216;-79
2023/09/29 04:53:06;;;;;;;0.10;0.10;;;15.60;99.90;;;;;;5087572;28;20284;-79
2023/09/29 04:55:32;;;;;;;0.10;0.10;;;15.60;99.90;;;;;;5081871;28;20188;-79
2023/09/29 04:57:57;;;;;;;0.00;0.00;;;15.70;99.90;;;;;;5088603;28;20617;-78
2023/09/29 05:00:24;;;;;;;0.00;0.00;;;15.70;99.90;;;;;;5089369;28;20244;-78
2023/09/29 05:02:49;;;;;;;0.00;0.00;;;15.80;99.90;;;;;;5071776;28;20315;-79
2023/09/29 05:05:15;;;;;;;0.00;0.00;;;15.70;99.90;;;;;;5086940;28;20522;-79
2023/09/29 05:07:43;;;;;;;0.00;0.00;;;15.70;99.90;;;;;;5086870;28;20177;-78
2023/09/29 05:10:10;;;;;;;0.00;0.00;;;15.70;99.90;;;;;;5093328;28;20260;-78
2023/09/29 05:12:37;;;;;;;0.10;0.10;;;15.80;99.90;;;;;;5080843;28;20498;-78
2023/09/29 05:15:03;;;;;;;0.10;0.10;;;15.80;99.90;;;;;;5078725;28;20439;-78
2023/09/29 05:17:29;;;;;;;0.00;0.00;;;15.90;99.90;;;;;;5097023;28;20790;-79
2023/09/29 05:19:54;;;;;;;0.00;0.00;;;15.90;99.90;;;;;;5091906;28;20490;-78
2023/09/29 05:22:21;;;;;;;0.00;0.00;;;15.90;99.90;;;;;;5095163;28;20181;-78
2023/09/29 05:24:47;;;;;;;0.10;0.10;;;15.80;99.90;;;;;;5106720;28;20189;-79
2023/09/29 05:27:13;;;;;;;0.00;0.00;;;15.90;99.90;;;;;;5108698;28;20910;-79
2023/09/29 05:29:39;;;;;;;0.00;0.00;;;16.00;99.90;;;;;;5091001;28;20466;-78
2023/09/29 05:32:05;;;;;;;0.00;0.00;;;16.00;99.90;;;;;;5082257;28;20578;-78
2023/09/29 05:34:30;;;;;;;0.10;0.10;;;15.90;99.90;;;;;;5090267;28;20939;-78
2023/09/29 05:36:56;;;;;;;0.10;0.10;;;16.00;99.90;;;;;;5097671;28;20196;-78
2023/09/29 05:39:23;;;;;;;0.00;0.00;;;15.90;99.90;;;;;;5106970;28;20227;-78
2023/09/29 05:41:48;;;;;;;0.00;0.00;;;15.90;99.90;;;;;;5078145;28;20188;-78
2023/09/29 05:44:15;;;;;;;0.10;0.10;;;15.90;99.90;;;;;;5100293;28;20862;-78
2023/09/29 05:46:40;;;;;;;0.00;0.00;;;16.00;99.90;;;;;;5078961;28;20200;-78
2023/09/29 05:49:06;;;;;;;0.00;0.00;;;16.00;99.90;;;;;;5089749;28;20946;-78
2023/09/29 05:51:32;;;;;;;0.00;0.00;;;16.00;99.90;;;;;;5094795;28;20553;-77
2023/09/29 05:53:58;;;;;;;0.00;0.00;;;16.00;99.90;;;;;;5092151;28;20193;-78
2023/09/29 05:56:24;;;;;;;0.00;0.00;;;16.00;99.90;;;;;;5091499;28;20193;-78
2023/09/29 05:58:49;;;;;;;0.00;0.00;;;16.00;99.90;;;;;;5080057;28;20474;-77
2023/09/29 06:01:15;;;;;;;0.00;0.00;;;16.00;99.90;;;;;;5074666;28;20186;-78
2023/09/29 06:03:41;;;;;;;0.00;0.00;;;16.00;99.90;;;;;;5078873;28;20182;-79
2023/09/29 06:06:09;;;;;;;0.10;0.10;;;16.10;99.90;;;;;;5082909;28;20454;-79
2023/09/29 06:08:36;;;;;;;0.00;0.00;;;16.10;99.90;;;;;;5072561;28;20265;-79
2023/09/29 06:11:03;;;;;;;0.10;0.10;;;16.10;99.90;;;;;;5074155;28;20476;-79
2023/09/29 06:13:28;;;;;;;0.10;0.10;;;16.10;99.90;;;;;;5087025;28;20435;-79
2023/09/29 06:15:56;;;;;;;0.10;0.10;;;16.10;99.90;;;;;;5091200;28;20462;-79
2023/09/29 06:18:21;;;;;;;0.10;0.10;;;16.20;99.90;;;;;;5069252;28;20205;-79
2023/09/29 06:20:47;;;;;;;0.10;0.10;;;16.10;99.90;;;;;;5073572;28;20873;-78
2023/09/29 06:23:12;;;;;;;0.10;0.10;;;16.20;99.90;;;;;;5067320;28;20181;-78
2023/09/29 06:25:38;;;;;;;0.10;0.10;;;16.20;99.90;;;;;;5068276;28;20714;-79
2023/09/29 06:28:04;;;;;;;0.10;0.10;;;16.20;99.90;;;;;;5088254;28;20658;-78
2023/09/29 06:30:30;;;;;;;0.00;0.00;;;16.20;99.90;;;;;;5077520;28;20645;-78
2023/09/29 06:32:56;;;;;;;0.00;0.00;;;16.20;99.90;;;;;;5080141;28;20420;-78
2023/09/29 06:35:21;;;;;;;0.00;0.00;;;16.30;99.90;;;;;;5077596;28;20901;-78
2023/09/29 06:37:47;;;;;;;0.00;0.00;;;16.30;99.90;;;;;;5091342;28;20614;-78
2023/09/29 06:40:12;;;;;;;0.10;0.10;;;16.30;99.90;;;;;;5086520;28;21121;-78
2023/09/29 06:42:38;;;;;;;0.00;0.00;;;16.30;99.90;;;;;;5074364;28;20677;-78
2023/09/29 06:45:06;;;;;;;0.10;0.10;;;16.30;99.90;;;;;;5084640;28;20181;-78
2023/09/29 06:47:32;;;;;;;0.10;0.10;;;16.30;99.90;;;;;;5076795;28;20436;-78
2023/09/29 06:49:57;;;;;;;0.00;0.00;;;16.30;99.90;;;;;;5088115;28;20471;-78
2023/09/29 06:52:25;;;;;;;0.00;0.00;;;16.40;99.90;;;;;;5083292;28;20474;-78
2023/09/29 06:54:50;;;;;;;0.00;0.00;;;16.30;99.90;;;;;;5069209;28;20185;-78
2023/09/29 06:57:16;;;;;;;0.00;0.00;;;16.30;99.90;;;;;;5076960;28;20447;-78
2023/09/29 06:59:42;;;;;;;0.00;0.00;;;16.30;99.90;;;;;;5092863;28;20216;-77
2023/09/29 07:02:07;;;;;;;0.00;0.00;;;16.40;99.90;;;;;;5085706;28;20188;-78
2023/09/29 07:04:33;;;;;;;0.00;0.00;;;16.40;99.90;;;;;;5090100;28;20185;-78
2023/09/29 07:06:59;;;;;;;0.00;0.00;;;16.40;99.90;;;;;;5098978;28;20989;-78
2023/09/29 07:09:28;;;;;;;0.10;0.10;;;16.40;99.90;;;;;;5095097;28;20636;-79
2023/09/29 07:11:54;;;;;;;0.10;0.10;;;16.50;99.90;;;;;;5089943;28;20947;-79
2023/09/29 07:14:19;;;;;;;0.00;0.00;;;16.50;99.90;;;;;;5095350;28;20526;-78
2023/09/29 07:16:49;;;;;;;0.10;0.10;;;16.60;99.90;;;;;;5061030;28;20310;-79
2023/09/29 07:19:15;;;;;;;0.10;0.10;;;16.60;99.90;;;;;;5091804;28;20205;-79
2023/09/29 07:21:41;;;;;;;0.10;0.10;;;16.60;99.90;;;;;;5088474;28;20795;-79
2023/09/29 07:24:07;;;;;;;0.10;0.10;;;16.60;99.90;;;;;;5086946;28;20224;-78
2023/09/29 07:26:33;;;;;;;0.00;0.00;;;16.70;99.90;;;;;;5096620;28;20434;-78
2023/09/29 07:29:01;;;;;;;0.10;0.10;;;16.70;99.90;;;;;;5083257;28;20797;-79
2023/09/29 07:31:38;;;;;;;0.10;0.10;;;16.70;99.90;;;;;;5072979;28;20224;-78
2023/09/29 07:34:04;;;;;;;0.10;0.10;;;16.70;99.90;;;;;;5105108;28;20866;-78
2023/09/29 07:36:31;;;;;;;0.10;0.10;;;16.70;99.90;;;;;;5077866;28;20436;-78
2023/09/29 07:38:58;;;;;;;0.10;0.10;;;16.70;99.90;;;;;;5094708;28;20515;-78
2023/09/29 07:41:23;;;;;;;0.00;0.00;;;16.80;99.90;;;;;;5071154;28;20434;-78
2023/09/29 07:43:49;;;;;;;0.10;0.10;;;16.80;99.90;;;;;;5086689;28;20492;-78
2023/09/29 07:46:15;;;;;;;0.10;0.10;;;16.80;99.90;;;;;;5091791;28;20176;-76
2023/09/29 07:48:40;;;;;;;0.10;0.10;;;16.80;99.90;;;;;;5097985;28;21085;-78
2023/09/29 07:51:06;;;;;;;0.10;0.10;;;16.90;99.90;;;;;;5087244;28;20181;-78
2023/09/29 07:53:31;;;;;;;0.10;0.10;;;16.90;99.90;;;;;;5068589;28;20549;-76
2023/09/29 07:55:57;;;;;;;0.10;0.10;;;16.90;99.90;;;;;;5079860;28;20185;-76
2023/09/29 07:58:22;;;;;;;0.00;0.00;;;16.90;99.90;;;;;;5089470;28;20827;-76
2023/09/29 08:00:48;;;;;;;0.00;0.00;;;16.90;99.90;;;;;;5063782;28;20688;-75
2023/09/29 08:03:13;;;;;;;0.00;0.00;;;16.80;99.90;;;;;;5058410;28;20265;-75
2023/09/29 08:05:39;;;;;;;0.10;0.10;;;16.80;99.90;;;;;;5060560;28;20207;-75
2023/09/29 08:08:05;;;;;;;0.10;0.10;;;16.80;99.90;;;;;;5065071;28;20179;-75
2023/09/29 08:10:32;;;;;;;0.00;0.00;;;16.70;99.90;;;;;;5050618;28;20190;-76
2023/09/29 08:12:57;;;;;;;0.00;0.00;;;16.70;99.90;;;;;;5063981;28;20945;-75
2023/09/29 08:15:24;;;;;;;0.10;0.10;;;16.80;99.90;;;;;;5064746;28;20445;-75
2023/09/29 08:17:50;;;;;;;0.00;0.00;;;16.80;99.90;;;;;;5062342;28;20175;-75
2023/09/29 08:20:17;;;;;;;0.00;0.00;;;16.80;99.90;;;;;;5051623;28;20484;-77
2023/09/29 08:22:43;;;;;;;0.00;0.00;;;16.80;99.90;;;;;;5054907;28;20433;-78
2023/09/29 08:25:09;;;;;;;0.10;0.10;;;16.80;99.90;;;;;;5057809;28;20811;-78
2023/09/29 08:27:35;;;;;;;0.00;0.00;;;16.90;99.90;;;;;;5067849;28;20546;-78
2023/09/29 08:30:02;;;;;;;0.00;0.00;;;16.90;99.90;;;;;;5071376;28;20432;-78
2023/09/29 08:32:27;;;;;;;0.10;0.10;;;16.90;99.90;;;;;;5069623;28;20428;-78
2023/09/29 08:34:53;;;;;;;0.10;0.10;;;16.90;99.90;;;;;;5072402;28;20585;-78
2023/09/29 08:37:18;;;;;;;0.10;0.10;;;16.90;99.90;;;;;;5064613;28;20186;-78
2023/09/29 08:39:44;;;;;;;0.10;0.10;;;17.00;99.90;;;;;;5055692;28;20236;-78
2023/09/29 08:42:35;;;;;;;0.10;0.10;;;17.00;99.90;;;;;;5066487;28;20539;-78
2023/09/29 08:45:03;;;;;;;0.00;0.00;;;17.00;99.90;;;;;;5054232;28;20551;-78
2023/09/29 08:47:30;;;;;;;0.10;0.10;;;17.10;99.90;;;;;;5070138;28;20443;-78
2023/09/29 08:49:59;;;;;;;0.10;0.10;;;17.10;99.90;;;;;;5071700;28;20451;-78
2023/09/29 08:52:30;;;;;;;0.10;0.10;;;17.10;99.90;;;;;;5077221;28;20514;-77
2023/09/29 08:54:56;;;;;;;0.00;0.00;;;17.10;99.90;;;;;;5070983;28;20438;-78
2023/09/29 08:57:24;;;;;;;0.00;0.00;;;17.20;99.90;;;;;;5081756;28;20789;-78
2023/09/29 08:59:52;;;;;;;0.00;0.00;;;17.20;99.90;;;;;;5084074;28;20489;-78
2023/09/29 09:02:18;;;;;;;0.10;0.10;;;17.30;99.90;;;;;;5089581;28;20449;-78
2023/09/29 09:04:43;;;;;;;0.00;0.00;;;17.30;99.90;;;;;;5096121;28;20442;-78
2023/09/29 09:07:09;;;;;;;0.00;0.00;;;17.30;99.90;;;;;;5091586;28;20197;-78
2023/09/29 09:09:36;;;;;;;0.10;0.10;;;17.40;99.90;;;;;;5090446;28;20178;-78
2023/09/29 09:12:02;;;;;;;0.00;0.00;;;17.40;99.90;;;;;;5091473;28;20193;-79
2023/09/29 09:14:42;;;;;;;0.10;0.10;;;17.50;99.90;;;;;;5094080;28;20442;-78
2023/09/29 09:17:10;;;;;;;0.10;0.10;;;17.60;99.90;;;;;;5089998;28;20510;-78
2023/09/29 09:19:50;;;;;;;0.10;0.10;;;17.80;99.90;;;;;;5101666;28;20481;-78
2023/09/29 09:22:21;;;;;;;0.10;0.10;;;17.80;99.90;;;;;;5081980;28;20962;-78
2023/09/29 09:24:48;;;;;;;0.10;0.10;;;17.80;99.90;;;;;;5101392;28;20959;-79
2023/09/29 09:27:14;;;;;;;0.00;0.00;;;17.80;99.90;;;;;;5087194;28;20447;-78
2023/09/29 09:29:42;;;;;;;0.00;0.00;;;17.80;99.90;;;;;;5093746;28;20938;-78
2023/09/29 09:32:10;;;;;;;0.00;0.00;;;17.80;99.90;;;;;;5101751;28;20188;-78
2023/09/29 09:34:37;;;;;;;0.10;0.10;;;18.00;99.90;;;;;;5080552;28;20423;-79
2023/09/29 09:37:03;;;;;;;0.10;0.10;;;18.10;99.90;;;;;;5100311;28;20437;-79
2023/09/29 09:39:29;;;;;;;0.10;0.10;;;18.20;99.90;;;;;;5089460;28;20485;-79
2023/09/29 09:41:59;;;;;;;0.10;0.10;;;18.30;99.90;;;;;;5087819;28;20821;-79
2023/09/29 09:44:26;;;;;;;0.10;0.10;;;18.30;99.90;;;;;;5070942;28;21460;-79
2023/09/29 09:46:54;;;;;;;0.10;0.10;;;18.30;99.90;;;;;;5090417;28;20942;-78
2023/09/29 09:49:27;;;;;;;0.10;0.00;;;18.30;99.90;;;;;;5084557;28;20435;-78
2023/09/29 09:51:54;;;;;;;0.10;0.10;;;18.40;99.90;;;;;;5086840;28;20459;-78
2023/09/29 09:54:28;;;;;;;0.00;0.00;;;18.30;99.90;;;;;;5087174;28;20800;-78
2023/09/29 09:57:00;;;;;;;0.10;0.10;;;18.10;99.90;;;;;;5091503;28;20446;-77
2023/09/29 09:59:27;;;;;;;0.00;0.00;;;18.10;99.90;;;;;;5092814;28;20505;-77
2023/09/29 10:01:55;;;;;;;0.00;0.00;;;18.10;99.90;;;;;;5089011;28;20586;-77
2023/09/29 10:04:24;;;;;;;0.00;0.00;;;18.00;99.90;;;;;;5097502;28;20443;-77
2023/09/29 10:06:50;;;;;;;0.10;0.10;;;18.00;99.90;;;;;;5088627;28;20768;-77
2023/09/29 10:09:16;;;;;;;0.10;0.10;;;18.00;99.90;;;;;;5073420;28;20440;-77
2023/09/29 10:11:42;;;;;;;0.10;0.10;;;18.10;99.90;;;;;;5089606;28;20224;-77
2023/09/29 10:14:11;;;;;;;0.10;0.10;;;18.10;99.90;;;;;;5089795;28;20197;-77
2023/09/29 10:16:38;;;;;;;0.00;0.00;;;18.30;99.90;;;;;;5083124;28;20436;-78
2023/09/29 10:19:16;;;;;;;0.00;0.00;;;18.50;99.90;;;;;;5089135;28;20563;-77
2023/09/29 10:21:45;;;;;;;0.10;0.10;;;18.80;99.90;;;;;;5093202;28;20526;-78
2023/09/29 10:24:13;;;;;;;0.10;0.10;;;18.80;99.90;;;;;;5090200;28;20435;-78
2023/09/29 10:26:51;;;;;;;0.00;0.00;;;18.70;99.90;;;;;;5073363;28;20817;-78
2023/09/29 10:29:32;;;;;;;0.10;0.10;;;18.70;99.90;;;;;;5091133;28;20435;-78
2023/09/29 10:32:13;;;;;;;0.10;0.10;;;18.80;99.90;;;;;;5086218;28;20482;-78
2023/09/29 10:34:40;;;;;;;0.10;0.00;;;18.80;99.90;;;;;;5074213;28;20418;-78
2023/09/29 10:37:06;;;;;;;0.10;0.10;;;18.90;99.90;;;;;;5101705;28;20433;-78
2023/09/29 10:39:31;;;;;;;0.10;0.10;;;19.00;99.90;;;;;;5101846;28;20840;-79
2023/09/29 10:42:14;;;;;;;0.00;0.00;;;19.10;99.90;;;;;;5079848;28;20543;-78
2023/09/29 10:44:52;;;;;;;0.10;0.10;;;19.10;99.90;;;;;;5089765;28;20193;-79
2023/09/29 10:47:17;;;;;;;0.10;0.00;;;19.00;99.90;;;;;;5088049;28;20439;-78
2023/09/29 10:49:46;;;;;;;0.00;0.00;;;19.00;99.90;;;;;;5086668;28;20447;-78
2023/09/29 10:52:19;;;;;;;0.00;0.00;;;19.00;99.90;;;;;;5083339;28;20185;-79
2023/09/29 10:54:45;;;;;;;0.00;0.00;;;19.00;99.90;;;;;;5058228;28;20434;-79
2023/09/29 10:57:10;;;;;;;0.10;0.10;;;19.00;99.90;;;;;;5094285;28;20430;-78
2023/09/29 10:59:48;;;;;;;0.10;0.00;;;19.00;99.90;;;;;;5083481;28;20308;-79
2023/09/29 11:02:15;;;;;;;0.10;0.00;;;19.00;99.90;;;;;;5076985;28;20177;-79
2023/09/29 11:04:45;;;;;;;0.10;0.00;;;18.90;99.90;;;;;;5074807;28;20477;-78
2023/09/29 11:07:10;;;;;;;0.10;0.10;;;18.90;99.90;;;;;;5085829;28;20434;-78
2023/09/29 11:09:38;;;;;;;0.10;0.00;;;18.90;99.90;;;;;;5093965;28;20434;-79
2023/09/29 11:12:04;;;;;;;0.10;0.00;;;18.90;99.90;;;;;;5090983;28;20188;-80
2023/09/29 11:14:36;;;;;;;0.10;0.00;;;19.00;99.90;;;;;;5080444;28;20552;-79
2023/09/29 11:17:02;;;;;;;0.00;0.00;;;19.00;99.90;;;;;;5086977;28;20428;-79
2023/09/29 11:19:30;;;;;;;0.00;0.00;;;19.10;99.90;;;;;;5106481;28;20825;-79
2023/09/29 11:22:00;;;;;;;0.00;0.00;;;19.20;99.90;;;;;;5093479;28;20177;-80
2023/09/29 11:24:25;;;;;;;0.00;0.00;;;19.20;99.90;;;;;;5074338;28;20451;-78
2023/09/29 11:26:55;;;;;;;0.00;0.00;;;19.30;99.90;;;;;;5094864;28;20934;-79
2023/09/29 11:29:28;;;;;;;0.00;0.00;;;19.30;99.90;;;;;;5075963;28;20184;-78
2023/09/29 11:31:54;;;;;;;0.03;0.00;;;19.40;99.90;;;;;;5092739;28;20430;-78
2023/09/29 11:34:21;;;;;;;0.10;0.00;;;19.50;99.90;;;;;;5085475;28;20831;-79
2023/09/29 11:36:48;;;;;;;0.00;0.00;;;19.50;99.90;;;;;;5066060;28;20507;-78
2023/09/29 11:39:17;;;;;;;0.00;0.00;;;19.60;99.90;;;;;;5090028;28;21062;-79
2023/09/29 11:41:43;;;;;;;0.10;0.00;;;19.70;99.90;;;;;;5073954;28;20445;-78
2023/09/29 11:44:09;;;;;;;0.10;0.00;;;19.70;99.90;;;;;;5108310;28;20425;-79
2023/09/29 11:46:36;;;;;;;0.00;0.00;;;19.80;99.90;;;;;;5102281;28;20431;-79
2023/09/29 11:49:03;;;;;;;0.00;0.00;;;19.90;99.90;;;;;;5081138;28;20203;-78
2023/09/29 11:51:29;;;;;;;0.00;0.00;;;20.20;99.90;;;;;;5101518;28;20442;-79
2023/09/29 11:53:54;;;;;;;0.00;0.00;;;20.60;99.90;;;;;;5097509;28;20430;-78
2023/09/29 11:56:21;;;;;;;0.00;0.00;;;21.20;99.90;;;;;;5111974;28;20183;-80
2023/09/29 11:58:47;;;;;;;0.00;0.00;;;21.20;99.90;;;;;;5105099;28;20204;-78
2023/09/29 12:01:13;;;;;;;0.00;0.00;;;21.30;99.90;;;;;;5102994;28;20806;-80
2023/09/29 12:03:40;;;;;;;0.00;0.00;;;21.80;99.90;;;;;;5093415;28;20225;-80
2023/09/29 12:06:05;;;;;;;0.00;0.00;;;22.90;99.90;;;;;;5099632;28;20184;-80
2023/09/29 12:08:31;;;;;;;0.00;0.00;;;23.20;99.90;;;;;;5094844;28;20465;-80
2023/09/29 12:10:58;;;;;;;0.00;0.00;;;22.70;99.90;;;;;;5112307;28;20441;-79
2023/09/29 12:13:25;;;;;;;0.00;0.00;;;22.50;99.90;;;;;;5109043;28;20479;-78
2023/09/29 12:15:50;;;;;;;0.00;0.00;;;22.00;99.90;;;;;;5105796;28;20506;-79
2023/09/29 12:18:16;;;;;;;0.00;0.00;;;22.20;99.90;;;;;;5095068;28;20893;-79
2023/09/29 12:20:42;;;;;;;0.00;0.00;;;22.20;99.90;;;;;;5078066;28;20189;-79
2023/09/29 12:23:08;;;;;;;0.00;0.00;;;22.30;99.90;;;;;;5102025;28;20268;-78
2023/09/29 12:25:38;;;;;;;0.00;0.00;;;22.40;99.90;;;;;;5079466;28;20551;-80
2023/09/29 12:28:04;;;;;;;0.00;0.00;;;23.00;99.90;;;;;;5100885;28;20475;-80
2023/09/29 12:30:30;;;;;;;0.00;0.00;;;23.80;99.90;;;;;;5104402;28;20536;-79
2023/09/29 12:32:55;;;;;;;0.00;0.00;;;24.30;99.90;;;;;;5108776;28;20427;-78
2023/09/29 12:35:21;;;;;;;0.00;0.00;;;23.80;99.90;;;;;;5096019;28;20850;-78
2023/09/29 12:37:47;;;;;;;0.00;0.00;;;23.10;99.90;;;;;;5102245;28;20288;-80
2023/09/29 12:40:14;;;;;;;0.00;0.00;;;22.90;99.90;;;;;;5102926;28;20260;-79
2023/09/29 12:42:46;;;;;;;0.00;0.00;;;22.50;99.90;;;;;;5103845;28;20176;-79
2023/09/29 12:45:14;;;;;;;0.00;0.00;;;21.90;99.90;;;;;;5107314;28;20470;-79
2023/09/29 12:47:40;;;;;;;0.00;0.00;;;21.70;99.90;;;;;;5088687;28;20791;-78
2023/09/29 12:50:07;;;;;;;0.00;0.00;;;21.50;99.90;;;;;;5097734;28;20441;-79